This is the latest recevied weather packets stored in our database for station/object HA5KDQ-10. If no packets are shown the sender has not sent any weather packets the latest 10 day(s).
| Time | Temp. | Humidity | Pressure | Rain* | Wind** | Luminosity | Snow |
|---|---|---|---|---|---|---|---|
| 1777644543 | 23.33° C | 18% | 968.8 hPa | - | - | - | - |
| 1777640942 | 24.44° C | 18% | 969.2 hPa | - | - | - | - |
| 1777637341 | 25° C | 17% | 969.7 hPa | - | - | - | - |
| 1777633741 | 23.33° C | 17% | 970.3 hPa | - | - | - | - |
| 1777630140 | 23.89° C | 16% | 970.7 hPa | - | - | - | - |
| 1777626539 | 22.78° C | 16% | 970.7 hPa | - | - | - | - |
| 1777622938 | 23.89° C | 15% | 970.7 hPa | - | - | - | - |
| 1777619337 | 22.78° C | 16% | 970.8 hPa | - | - | - | - |
| 1777615736 | 23.33° C | 17% | 970.7 hPa | - | - | - | - |
| 1777612135 | 23.33° C | 17% | 970.4 hPa | - | - | - | - |
| 1777608535 | 13.33° C | 24% | 969.9 hPa | - | - | - | - |
| 1777604934 | 8.33° C | 29% | 969.9 hPa | - | - | - | - |
| 1777601333 | 8.33° C | 29% | 970 hPa | - | - | - | - |
| 1777597731 | 8.33° C | 28% | 970 hPa | - | - | - | - |
| 1777594131 | 8.89° C | 28% | 969.9 hPa | - | - | - | - |
| 1777590530 | 8.89° C | 27% | 970.2 hPa | - | - | - | - |
| 1777586928 | 9.44° C | 26% | 970.2 hPa | - | - | - | - |
| 1777583328 | 9.44° C | 25% | 969.9 hPa | - | - | - | - |
| 1777579727 | 9.44° C | 25% | 969.7 hPa | - | - | - | - |
| 1777576126 | 10.56° C | 24% | 969.5 hPa | - | - | - | - |
| 1777572545 | 10.56° C | 23% | 969.1 hPa | - | - | - | - |
| 1777568943 | 12.78° C | 21% | 968.9 hPa | - | - | - | - |
| 1777565342 | 14.44° C | 19% | 968.8 hPa | - | - | - | - |
| 1777561741 | 15° C | 18% | 968.8 hPa | - | - | - | - |
| 1777558141 | 17.78° C | 16% | 969.1 hPa | - | - | - | - |
* Rain since midnight (hover to see other rain measurements)
** Current wind speed in m/s (hover to see current wind gust speed)